Time;durP1;ratioP1;P1;durP2;ratioP2;P2;SDS_P1;SDS_P2;PMS_P1;PMS_P2;Temp;Humidity;BMP_temperature;BMP_pressure;BME280_temperature;BME280_humidity;BME280_pressure;Samples;Min_cycle;Max_cycle;Signal;HPM_P1;HPM_P2
2023/10/10 00:01:02;;;;;;;12.60;6.88;;;15.30;99.90;;;;;;4994653;28;20025;-45
2023/10/10 00:03:31;;;;;;;14.60;5.90;;;15.20;99.90;;;;;;4994366;28;20038;-45
2023/10/10 00:05:58;;;;;;;14.07;7.05;;;15.20;99.90;;;;;;4994518;28;20049;-45
2023/10/10 00:08:36;;;;;;;13.48;6.25;;;15.20;99.90;;;;;;4994548;28;20506;-47
2023/10/10 00:11:16;;;;;;;12.27;6.55;;;15.10;99.90;;;;;;4994574;28;20447;-45
2023/10/10 00:13:43;;;;;;;12.98;6.97;;;15.10;99.90;;;;;;4994281;28;20054;-46
2023/10/10 00:16:19;;;;;;;10.77;6.60;;;15.10;99.90;;;;;;4994097;28;20027;-46
2023/10/10 00:18:45;;;;;;;10.38;6.60;;;15.10;99.90;;;;;;4994838;28;20421;-49
2023/10/10 00:21:22;;;;;;;12.43;6.38;;;15.00;99.90;;;;;;4994376;28;20422;-46
2023/10/10 00:23:49;;;;;;;14.00;6.82;;;15.00;99.90;;;;;;4994262;28;20035;-49
2023/10/10 00:26:15;;;;;;;11.18;7.18;;;15.00;99.90;;;;;;4994116;28;20072;-48
2023/10/10 00:28:44;;;;;;;8.65;5.75;;;15.00;99.90;;;;;;4994205;28;20133;-46
2023/10/10 00:31:15;;;;;;;12.45;6.03;;;15.00;99.90;;;;;;4992851;28;20026;-47
2023/10/10 00:33:41;;;;;;;14.93;6.63;;;15.00;99.90;;;;;;4994033;28;20470;-47
2023/10/10 00:36:12;;;;;;;12.43;6.57;;;15.00;99.90;;;;;;4993854;28;20022;-45
2023/10/10 00:38:38;;;;;;;14.30;7.30;;;15.00;99.90;;;;;;4994228;28;20026;-48
2023/10/10 00:41:10;;;;;;;15.95;7.35;;;15.00;99.90;;;;;;4993724;28;20027;-47
2023/10/10 00:43:36;;;;;;;13.20;6.13;;;15.00;99.90;;;;;;4993865;28;20018;-47
2023/10/10 00:46:04;;;;;;;11.93;6.65;;;15.00;99.90;;;;;;4993651;28;20035;-45
2023/10/10 00:48:32;;;;;;;10.23;6.20;;;14.90;99.90;;;;;;4993797;28;20033;-49
2023/10/10 00:51:08;;;;;;;14.27;6.53;;;14.90;99.90;;;;;;4994000;28;20041;-46
2023/10/10 00:53:35;;;;;;;13.82;5.47;;;14.80;99.90;;;;;;4993461;28;20121;-48
2023/10/10 00:56:05;;;;;;;8.25;5.65;;;14.70;99.90;;;;;;4993503;28;20027;-48
2023/10/10 00:58:36;;;;;;;12.68;5.55;;;14.70;99.90;;;;;;4993628;28;20019;-47
2023/10/10 01:01:14;;;;;;;12.77;6.95;;;14.60;99.90;;;;;;4993861;28;20027;-46
2023/10/10 01:03:45;;;;;;;12.43;5.90;;;14.60;99.90;;;;;;4993459;28;20474;-47
2023/10/10 01:06:24;;;;;;;18.38;7.45;;;14.50;99.90;;;;;;4993355;28;20038;-47
2023/10/10 01:09:04;;;;;;;15.18;6.75;;;14.50;99.90;;;;;;4992219;28;20076;-48
2023/10/10 01:11:30;;;;;;;12.02;6.45;;;14.50;99.90;;;;;;4993726;28;20030;-47
2023/10/10 01:13:56;;;;;;;15.13;7.78;;;14.50;99.90;;;;;;4993206;28;20018;-46
2023/10/10 01:16:24;;;;;;;9.38;5.60;;;14.40;99.90;;;;;;4991721;28;20031;-45
2023/10/10 01:18:54;;;;;;;11.13;5.85;;;14.40;99.90;;;;;;4993318;28;20026;-48
2023/10/10 01:21:32;;;;;;;9.70;6.35;;;14.40;99.90;;;;;;4993135;28;20015;-53
2023/10/10 01:24:11;;;;;;;17.10;6.65;;;14.40;99.90;;;;;;4993070;28;20022;-45
2023/10/10 01:26:44;;;;;;;11.35;5.72;;;14.40;99.90;;;;;;4992958;28;20049;-46
2023/10/10 01:29:21;;;;;;;13.85;6.65;;;14.40;99.90;;;;;;4993088;28;20103;-46
2023/10/10 01:31:48;;;;;;;14.52;6.03;;;14.40;99.90;;;;;;4992991;28;20022;-46
2023/10/10 01:34:30;;;;;;;11.68;6.65;;;14.40;99.90;;;;;;4992754;28;20520;-46
2023/10/10 01:37:21;;;;;;;10.68;6.22;;;14.40;99.90;;;;;;4991456;28;20038;-46
2023/10/10 01:40:15;;;;;;;13.80;7.20;;;14.40;99.90;;;;;;4992646;28;20062;-46
2023/10/10 01:42:59;;;;;;;10.27;6.10;;;14.40;99.90;;;;;;4991560;28;20029;-48
2023/10/10 01:45:27;;;;;;;10.80;5.95;;;14.30;99.90;;;;;;4992756;28;20025;-47
2023/10/10 01:48:08;;;;;;;13.02;7.32;;;14.30;99.90;;;;;;4992668;28;20023;-47
2023/10/10 01:50:34;;;;;;;13.43;7.65;;;14.30;99.90;;;;;;4993022;28;20022;-48
2023/10/10 01:53:00;;;;;;;10.20;6.57;;;14.20;99.90;;;;;;4992801;28;20081;-44
2023/10/10 01:55:26;;;;;;;12.23;6.95;;;14.20;99.90;;;;;;4992509;28;20042;-48
2023/10/10 01:58:01;;;;;;;17.25;6.93;;;14.20;99.90;;;;;;4992522;28;20478;-46
2023/10/10 02:00:27;;;;;;;15.57;6.72;;;14.20;99.90;;;;;;4992685;28;20096;-46
2023/10/10 02:02:55;;;;;;;12.05;6.07;;;14.10;99.90;;;;;;4992371;28;20506;-45
2023/10/10 02:05:55;;;;;;;13.40;6.68;;;14.10;99.90;;;;;;4992433;28;20019;-49
2023/10/10 02:08:17;;;;;;;14.25;6.15;;;14.00;99.90;;;;;;4992150;28;20053;-47
2023/10/10 02:10:45;;;;;;;12.25;6.78;;;14.00;99.90;;;;;;4992562;28;20084;-47
2023/10/10 02:13:12;;;;;;;16.27;6.80;;;14.00;99.90;;;;;;4992149;28;20022;-48
2023/10/10 02:15:39;;;;;;;13.77;6.45;;;13.90;99.90;;;;;;4992081;28;20455;-48
2023/10/10 02:18:12;;;;;;;11.43;6.78;;;13.90;99.90;;;;;;4992318;28;20053;-51
2023/10/10 02:23:23;;;;;;;9.23;6.30;;;13.90;99.90;;;;;;4992170;28;20032;-46
2023/10/10 02:25:49;;;;;;;11.20;6.75;;;13.90;99.90;;;;;;4991981;28;20441;-51
2023/10/10 02:30:46;;;;;;;14.70;6.95;;;13.90;99.90;;;;;;4992189;28;20022;-49
2023/10/10 02:33:26;;;;;;;10.73;6.20;;;13.90;99.90;;;;;;4990837;28;20015;-48
2023/10/10 02:35:56;;;;;;;14.32;6.65;;;13.90;99.90;;;;;;4991913;28;20077;-50
2023/10/10 02:38:31;;;;;;;13.90;5.97;;;13.90;99.90;;;;;;4992074;28;20546;-48
2023/10/10 02:41:15;;;;;;;14.43;7.85;;;13.90;99.90;;;;;;4991878;28;20022;-48
2023/10/10 02:46:40;;;;;;;11.32;5.35;;;13.80;99.90;;;;;;4993388;28;20056;-47
2023/10/10 02:49:13;;;;;;;10.88;6.47;;;13.70;99.90;;;;;;4993451;28;20114;-46
2023/10/10 02:51:48;;;;;;;9.98;5.80;;;13.70;99.90;;;;;;4996553;28;20030;-49
2023/10/10 02:54:27;;;;;;;11.18;6.30;;;13.70;99.90;;;;;;4995894;28;20069;-52
2023/10/10 02:59:51;;;;;;;9.98;5.65;;;13.70;99.90;;;;;;4992282;28;20089;-46
2023/10/10 03:02:23;;;;;;;12.43;5.93;;;13.60;99.90;;;;;;4991841;28;20033;-46
2023/10/10 03:05:05;;;;;;;13.85;6.05;;;13.60;99.90;;;;;;4991611;28;20097;-46
2023/10/10 03:07:31;;;;;;;13.07;6.10;;;13.60;99.90;;;;;;4991600;28;20031;-45
2023/10/10 03:10:23;;;;;;;12.10;6.65;;;13.60;99.90;;;;;;4991818;28;20041;-46
2023/10/10 03:12:53;;;;;;;9.77;5.72;;;13.60;99.90;;;;;;4991705;28;20022;-45
2023/10/10 03:31:08;;;;;;;13.70;7.38;;;13.50;99.90;;;;;;4991777;28;20023;-49
2023/10/10 03:33:36;;;;;;;9.85;6.22;;;13.50;99.90;;;;;;4995088;28;20026;-47
2023/10/10 03:41:26;;;;;;;10.40;6.00;;;13.40;99.90;;;;;;4994859;28;20018;-47
2023/10/10 05:25:13;;;;;;;11.45;6.22;;;12.70;99.90;;;;;;4993123;28;20554;-46
2023/10/10 05:27:41;;;;;;;9.13;5.53;;;12.70;99.90;;;;;;4993147;28;20079;-48
2023/10/10 05:30:27;;;;;;;10.07;6.10;;;12.70;99.90;;;;;;4989222;28;20019;-47
2023/10/10 05:33:04;;;;;;;9.35;5.95;;;12.70;99.90;;;;;;4992818;28;20389;-45
2023/10/10 05:35:57;;;;;;;11.20;6.65;;;12.70;99.90;;;;;;4991321;28;20492;-46
2023/10/10 05:38:22;;;;;;;9.40;6.22;;;12.60;99.90;;;;;;4973581;28;20494;-46
2023/10/10 05:40:48;;;;;;;19.33;6.70;;;12.60;99.90;;;;;;4973401;28;20026;-48
2023/10/10 05:43:19;;;;;;;10.43;6.30;;;12.60;99.90;;;;;;4983114;28;20454;-46
2023/10/10 05:45:45;;;;;;;12.48;6.30;;;12.70;99.90;;;;;;4992301;28;20014;-51
2023/10/10 05:48:11;;;;;;;11.45;6.45;;;12.70;99.90;;;;;;4992726;28;20069;-49
2023/10/10 05:50:40;;;;;;;13.98;7.00;;;12.70;99.90;;;;;;4992669;28;20398;-48
2023/10/10 05:53:06;;;;;;;13.73;7.28;;;12.70;99.90;;;;;;4992324;28;20023;-47
2023/10/10 05:55:33;;;;;;;10.77;6.72;;;12.70;99.90;;;;;;4991295;28;20030;-48
2023/10/10 05:58:02;;;;;;;14.07;6.55;;;12.70;99.90;;;;;;4992370;28;20077;-46
2023/10/10 06:00:32;;;;;;;15.98;6.80;;;12.80;99.90;;;;;;4992278;28;20092;-48
2023/10/10 06:02:57;;;;;;;12.65;7.25;;;12.80;99.90;;;;;;4992319;28;20041;-46
2023/10/10 06:05:22;;;;;;;13.15;7.43;;;12.80;99.90;;;;;;4992196;28;20031;-45
2023/10/10 06:07:49;;;;;;;15.38;8.27;;;12.90;99.90;;;;;;4992831;28;20057;-45
2023/10/10 06:10:18;;;;;;;16.58;7.93;;;13.00;99.90;;;;;;4992767;28;20545;-44
2023/10/10 06:12:45;;;;;;;14.55;7.13;;;13.10;99.90;;;;;;4992253;28;20030;-45
2023/10/10 06:15:11;;;;;;;16.23;9.10;;;13.20;99.90;;;;;;4992010;28;20074;-45
2023/10/10 06:17:38;;;;;;;11.27;7.35;;;13.20;99.90;;;;;;4991888;28;20022;-44
2023/10/10 06:20:08;;;;;;;10.95;7.13;;;13.20;99.90;;;;;;4992395;28;20054;-48
2023/10/10 06:22:33;;;;;;;15.30;7.90;;;13.30;99.90;;;;;;4991908;28;20028;-45
2023/10/10 06:24:59;;;;;;;23.85;8.80;;;13.40;99.90;;;;;;4991969;28;20022;-45
2023/10/10 06:27:28;;;;;;;18.00;8.10;;;13.50;99.90;;;;;;4991838;28;20033;-44
2023/10/10 06:29:58;;;;;;;14.98;7.88;;;13.60;99.90;;;;;;4992071;28;20022;-48
2023/10/10 06:32:31;;;;;;;18.73;7.90;;;13.60;99.90;;;;;;4992129;28;20026;-48
2023/10/10 06:37:42;;;;;;;15.98;7.95;;;13.60;99.90;;;;;;4992344;28;20033;-45
2023/10/10 06:40:09;;;;;;;17.60;9.30;;;13.60;99.90;;;;;;4992389;28;20026;-45
2023/10/10 06:42:35;;;;;;;18.40;8.55;;;13.70;99.90;;;;;;4991177;28;20494;-47
2023/10/10 06:45:07;;;;;;;20.20;8.68;;;13.70;99.90;;;;;;4991942;28;20441;-45
2023/10/10 06:47:34;;;;;;;21.02;8.57;;;13.80;99.90;;;;;;4992295;28;20037;-46
2023/10/10 06:50:01;;;;;;;16.65;7.65;;;13.90;99.90;;;;;;4992722;28;20108;-46
2023/10/10 06:52:27;;;;;;;12.52;7.50;;;14.00;99.90;;;;;;4992085;28;20034;-48
2023/10/10 06:54:56;;;;;;;12.82;6.35;;;14.30;99.90;;;;;;4992011;28;20034;-45
2023/10/10 06:57:43;;;;;;;14.55;7.78;;;14.70;99.90;;;;;;4991849;28;20026;-45
2023/10/10 07:02:41;;;;;;;12.90;7.63;;;15.50;99.90;;;;;;4992230;28;20022;-47
2023/10/10 07:05:15;;;;;;;12.65;7.45;;;15.90;99.90;;;;;;4991840;28;20018;-45
2023/10/10 07:07:44;;;;;;;15.85;7.63;;;16.40;99.90;;;;;;4996017;28;20027;-45
2023/10/10 07:10:09;;;;;;;11.48;6.70;;;17.00;99.90;;;;;;4994886;28;20121;-45
2023/10/10 07:12:38;;;;;;;14.52;7.75;;;17.50;99.90;;;;;;4996084;28;20466;-47
2023/10/10 07:15:07;;;;;;;15.30;6.68;;;17.70;99.90;;;;;;4995825;28;20054;-47
2023/10/10 07:17:38;;;;;;;9.00;6.35;;;18.10;99.90;;;;;;4995430;28;20442;-45
2023/10/10 07:22:33;;;;;;;17.38;7.15;;;18.70;99.90;;;;;;4995886;28;20023;-45
2023/10/10 07:25:31;;;;;;;13.80;7.68;;;18.30;99.90;;;;;;4995647;28;20097;-46
2023/10/10 07:27:48;;;;;;;15.63;7.13;;;18.00;99.90;;;;;;4995404;28;20497;-47
2023/10/10 07:30:17;;;;;;;15.57;8.02;;;17.50;99.90;;;;;;4995496;28;20034;-46
2023/10/10 07:32:50;;;;;;;12.25;6.93;;;17.10;99.90;;;;;;4995475;28;20486;-49
2023/10/10 07:35:17;;;;;;;14.15;6.85;;;16.70;99.90;;;;;;4995000;28;20051;-45
2023/10/10 07:37:46;;;;;;;14.32;7.68;;;16.50;99.90;;;;;;4993266;28;20026;-46
2023/10/10 07:40:30;;;;;;;14.25;7.72;;;16.40;99.90;;;;;;4995121;28;20033;-46
2023/10/10 07:43:02;;;;;;;23.98;8.75;;;16.30;99.90;;;;;;4995049;28;20018;-46
2023/10/10 07:45:33;;;;;;;14.43;8.00;;;16.20;99.90;;;;;;4994855;28;20027;-46
2023/10/10 07:50:34;;;;;;;10.73;7.00;;;16.10;99.90;;;;;;4994859;28;20034;-49
2023/10/10 07:53:04;;;;;;;12.98;6.70;;;16.10;99.90;;;;;;4994443;28;20031;-46
2023/10/10 07:55:37;;;;;;;13.60;7.85;;;16.10;99.90;;;;;;4994557;28;20359;-47
2023/10/10 07:58:06;;;;;;;15.23;7.32;;;16.10;99.90;;;;;;4994616;28;20038;-46
2023/10/10 08:00:39;;;;;;;13.15;8.85;;;16.20;99.90;;;;;;4995072;28;20037;-46
2023/10/10 08:03:07;;;;;;;13.07;7.22;;;16.20;99.90;;;;;;4994717;28;20025;-46
2023/10/10 08:05:33;;;;;;;17.27;9.13;;;16.20;99.90;;;;;;4994349;28;20137;-46
2023/10/10 08:08:04;;;;;;;20.25;8.60;;;16.20;99.90;;;;;;4994386;28;20461;-48
2023/10/10 08:13:10;;;;;;;26.42;9.65;;;16.40;99.90;;;;;;4994641;28;20034;-46
2023/10/10 08:15:50;;;;;;;22.15;8.20;;;16.30;99.90;;;;;;4994748;28;20117;-51
2023/10/10 08:23:25;;;;;;;17.63;10.00;;;16.30;99.90;;;;;;4994413;28;20019;-45
2023/10/10 08:25:53;;;;;;;20.20;9.70;;;16.40;99.90;;;;;;4993787;28;20029;-45
2023/10/10 08:28:22;;;;;;;21.45;8.77;;;16.50;99.90;;;;;;4993576;28;20026;-45
2023/10/10 08:30:51;;;;;;;15.65;8.45;;;16.50;99.90;;;;;;4993986;28;20126;-45
2023/10/10 08:33:17;;;;;;;16.00;9.25;;;16.60;99.90;;;;;;4993619;28;20034;-46
2023/10/10 08:35:42;;;;;;;20.73;9.57;;;16.70;99.90;;;;;;4992611;28;20409;-45
2023/10/10 08:38:08;;;;;;;15.88;9.25;;;16.80;99.90;;;;;;4994057;28;20027;-48
2023/10/10 08:40:36;;;;;;;20.15;9.90;;;16.90;99.90;;;;;;4994389;28;20101;-45
2023/10/10 08:43:07;;;;;;;16.52;8.85;;;17.10;99.90;;;;;;4993834;28;20470;-51
2023/10/10 08:45:43;;;;;;;16.88;8.38;;;17.30;99.90;;;;;;4989031;28;20019;-46
2023/10/10 08:48:15;;;;;;;17.80;8.35;;;17.30;99.90;;;;;;4973185;28;20081;-45
2023/10/10 08:50:46;;;;;;;26.48;7.80;;;17.50;99.90;;;;;;4974367;28;20047;-45
2023/10/10 08:53:13;;;;;;;17.50;8.30;;;17.70;99.90;;;;;;4974210;28;20034;-45
2023/10/10 08:55:40;;;;;;;25.75;8.48;;;17.90;99.90;;;;;;4974089;28;20023;-46
2023/10/10 08:58:10;;;;;;;17.35;8.15;;;18.10;99.90;;;;;;4974282;28;20498;-47
2023/10/10 09:00:37;;;;;;;21.05;8.25;;;18.20;99.90;;;;;;4988816;28;20073;-45
2023/10/10 09:03:03;;;;;;;18.58;8.68;;;18.40;99.90;;;;;;4991634;28;20117;-46
2023/10/10 09:05:29;;;;;;;20.23;8.80;;;18.50;99.90;;;;;;4993622;28;20033;-46
2023/10/10 09:08:05;;;;;;;17.20;8.23;;;18.70;99.90;;;;;;4993030;28;20030;-46
2023/10/10 09:10:39;;;;;;;39.63;26.00;;;19.30;99.90;;;;;;4993512;28;20033;-46
2023/10/10 09:13:07;;;;;;;17.35;9.45;;;20.30;99.90;;;;;;4995175;28;20037;-52
2023/10/10 09:15:34;;;;;;;20.30;9.82;;;20.90;99.90;;;;;;4995749;28;20069;-50
2023/10/10 09:18:22;;;;;;;14.40;8.02;;;21.40;99.90;;;;;;4996051;28;20038;-51
2023/10/10 09:20:49;;;;;;;17.38;7.82;;;21.80;99.90;;;;;;4995628;28;20046;-49
2023/10/10 09:23:24;;;;;;;17.65;8.07;;;22.00;99.90;;;;;;4994642;28;20418;-46
2023/10/10 09:26:03;;;;;;;23.63;7.95;;;22.20;99.90;;;;;;4993607;28;20027;-46
2023/10/10 09:28:43;;;;;;;24.70;9.43;;;22.30;99.90;;;;;;4993538;28;20102;-47
2023/10/10 09:31:20;;;;;;;21.20;8.18;;;22.40;99.90;;;;;;4991722;28;20029;-46
2023/10/10 09:33:47;;;;;;;15.27;8.30;;;22.70;99.90;;;;;;4993194;28;20433;-46
2023/10/10 09:36:19;;;;;;;20.15;9.07;;;22.90;99.90;;;;;;4992946;28;20034;-47
2023/10/10 09:38:46;;;;;;;21.52;9.85;;;23.00;99.90;;;;;;4993265;28;20049;-48
2023/10/10 09:49:51;;;;;;;21.52;9.82;;;23.10;99.90;;;;;;4992503;28;20506;-43
2023/10/10 09:55:09;;;;;;;24.55;9.15;;;22.70;99.90;;;;;;4992201;28;20045;-43
2023/10/10 09:57:42;;;;;;;15.05;8.63;;;22.50;99.90;;;;;;4992392;28;20030;-44
2023/10/10 10:00:16;;;;;;;19.48;8.55;;;22.30;99.90;;;;;;4992684;28;20029;-46
2023/10/10 10:02:43;;;;;;;19.70;9.20;;;22.30;99.90;;;;;;4992995;28;20371;-44
2023/10/10 10:05:15;;;;;;;15.65;7.65;;;22.50;99.90;;;;;;4992147;28;20022;-45
2023/10/10 10:07:58;;;;;;;26.02;8.32;;;22.60;99.90;;;;;;4992481;28;20026;-44
2023/10/10 10:10:49;;;;;;;20.02;9.30;;;22.70;99.90;;;;;;4992548;28;20442;-43
2023/10/10 10:13:37;;;;;;;18.95;7.80;;;22.80;99.90;;;;;;4992410;28;20022;-44
2023/10/10 10:16:20;;;;;;;17.85;9.52;;;22.70;99.90;;;;;;4992018;28;20065;-43
2023/10/10 10:18:47;;;;;;;18.85;9.23;;;22.50;99.90;;;;;;4990826;28;20152;-44
2023/10/10 10:21:30;;;;;;;18.33;8.75;;;22.50;99.90;;;;;;4992212;28;20150;-47
2023/10/10 10:24:15;;;;;;;25.23;9.93;;;22.40;99.90;;;;;;4992045;28;20054;-44
2023/10/10 10:26:42;;;;;;;22.45;11.15;;;22.30;99.90;;;;;;4990821;28;20117;-43
2023/10/10 10:29:22;;;;;;;22.50;12.27;;;22.20;99.90;;;;;;4991828;28;20041;-42
2023/10/10 10:31:51;;;;;;;33.58;15.48;;;22.30;99.90;;;;;;4992060;28;20034;-43
2023/10/10 10:34:35;;;;;;;24.33;10.32;;;22.20;99.90;;;;;;4991944;28;20053;-47
2023/10/10 10:37:19;;;;;;;22.67;9.60;;;22.10;99.90;;;;;;4991486;28;20030;-43
2023/10/10 10:42:34;;;;;;;18.15;8.93;;;21.90;99.90;;;;;;4998738;28;20053;-46
2023/10/10 10:45:36;;;;;;;23.42;9.88;;;21.80;99.90;;;;;;4998640;28;20045;-44
2023/10/10 10:48:17;;;;;;;16.40;8.65;;;21.60;99.90;;;;;;4998301;28;20022;-45
2023/10/10 10:50:43;;;;;;;19.25;8.43;;;21.60;99.90;;;;;;4998640;28;20038;-45
2023/10/10 10:53:20;;;;;;;26.13;10.10;;;21.60;99.90;;;;;;4998325;28;20030;-46
2023/10/10 10:56:06;;;;;;;18.33;8.45;;;21.60;99.90;;;;;;4999127;28;20057;-44
2023/10/10 10:58:37;;;;;;;19.92;8.52;;;21.60;99.90;;;;;;4998843;28;20045;-44
2023/10/10 11:01:16;;;;;;;17.38;8.82;;;21.60;99.90;;;;;;4998354;28;20402;-43
2023/10/10 11:03:44;;;;;;;20.13;8.90;;;21.50;99.90;;;;;;4998268;28;20037;-44
2023/10/10 11:06:12;;;;;;;19.77;7.90;;;21.50;99.90;;;;;;4996283;28;20022;-44
2023/10/10 11:16:56;;;;;;;24.00;9.13;;;21.50;99.90;;;;;;4998222;28;20026;-44
2023/10/10 11:21:59;;;;;;;22.67;8.10;;;21.40;99.90;;;;;;4998504;28;20038;-45
2023/10/10 11:24:29;;;;;;;17.15;6.45;;;21.40;99.90;;;;;;4998854;28;20483;-44
2023/10/10 11:29:45;;;;;;;22.73;7.85;;;21.30;99.90;;;;;;4998346;28;20062;-48
2023/10/10 11:32:45;;;;;;;20.45;8.23;;;21.30;99.90;;;;;;4997619;28;20433;-47
2023/10/10 11:35:22;;;;;;;16.17;7.30;;;21.30;99.90;;;;;;4997725;28;20030;-43
2023/10/10 11:38:06;;;;;;;21.27;7.82;;;21.20;99.90;;;;;;4998095;28;20490;-43
2023/10/10 11:40:32;;;;;;;22.77;8.48;;;21.20;99.90;;;;;;4998227;28;20026;-47
2023/10/10 11:42:59;;;;;;;48.55;25.10;;;21.20;99.90;;;;;;4997897;28;20088;-46
2023/10/10 11:45:26;;;;;;;23.77;12.60;;;21.20;99.90;;;;;;4997683;28;20549;-44
2023/10/10 11:47:53;;;;;;;45.55;25.92;;;21.20;99.90;;;;;;4997732;28;20397;-47
2023/10/10 11:50:22;;;;;;;21.10;7.85;;;21.20;99.90;;;;;;4998004;28;20050;-46
2023/10/10 11:52:58;;;;;;;23.27;9.20;;;21.30;99.90;;;;;;4995193;28;20077;-43
2023/10/10 11:55:25;;;;;;;13.23;7.40;;;21.30;99.90;;;;;;4994611;28;20022;-43
2023/10/10 11:57:57;;;;;;;18.58;7.97;;;21.30;99.90;;;;;;4995220;28;20125;-43
2023/10/10 12:00:30;;;;;;;13.05;7.25;;;21.30;99.90;;;;;;4995932;28;20023;-43
2023/10/10 12:02:57;;;;;;;20.80;8.40;;;21.30;99.90;;;;;;4994727;28;20030;-42
2023/10/10 12:08:05;;;;;;;15.98;7.40;;;21.30;99.90;;;;;;4995021;28;20027;-44
2023/10/10 12:11:11;;;;;;;17.45;7.57;;;21.30;99.90;;;;;;4995002;28;20019;-43
2023/10/10 12:15:51;;;;;;;17.40;7.03;;;21.40;99.90;;;;;;4994221;28;20034;-46
2023/10/10 12:18:17;;;;;;;15.13;7.15;;;21.50;99.90;;;;;;4993097;28;20505;-43
2023/10/10 12:20:44;;;;;;;14.02;7.18;;;21.50;99.90;;;;;;4994338;28;20041;-44
2023/10/10 12:23:15;;;;;;;14.90;7.13;;;21.50;99.90;;;;;;4994710;28;20073;-46
2023/10/10 12:25:41;;;;;;;18.80;7.63;;;21.50;99.90;;;;;;4994275;28;20382;-45
2023/10/10 12:28:09;;;;;;;17.65;7.45;;;21.50;99.90;;;;;;4994175;28;20034;-47
2023/10/10 12:30:40;;;;;;;14.30;7.25;;;21.60;99.90;;;;;;4994503;28;20052;-43
2023/10/10 12:33:12;;;;;;;18.42;7.28;;;21.50;99.90;;;;;;4994316;28;20482;-44
2023/10/10 12:35:47;;;;;;;20.45;6.68;;;21.50;99.90;;;;;;4994496;28;20034;-46
2023/10/10 12:38:20;;;;;;;15.55;7.38;;;21.60;99.90;;;;;;4994178;28;20041;-43
2023/10/10 12:40:47;;;;;;;11.35;5.93;;;21.70;99.90;;;;;;4993910;28;20121;-47
2023/10/10 12:43:12;;;;;;;16.23;6.70;;;21.70;99.90;;;;;;4993578;28;20093;-48
2023/10/10 12:45:38;;;;;;;16.20;7.80;;;21.70;99.90;;;;;;4993635;28;20015;-45
2023/10/10 12:48:13;;;;;;;18.90;7.57;;;21.70;99.90;;;;;;4991822;28;20030;-46
2023/10/10 12:50:39;;;;;;;20.67;6.95;;;21.80;99.90;;;;;;4992977;28;20567;-48
2023/10/10 12:53:08;;;;;;;10.43;5.25;;;21.70;99.90;;;;;;4995342;28;20044;-50
2023/10/10 12:55:36;;;;;;;19.98;6.60;;;21.80;99.90;;;;;;4993725;28;20397;-47
2023/10/10 12:58:14;;;;;;;16.85;6.72;;;21.90;99.90;;;;;;4992409;28;20033;-45
2023/10/10 13:00:42;;;;;;;27.88;13.60;;;22.00;99.90;;;;;;4994525;28;20031;-47
2023/10/10 13:03:07;;;;;;;17.80;6.75;;;22.00;99.90;;;;;;4993389;28;20026;-46
2023/10/10 13:05:33;;;;;;;32.47;18.52;;;22.10;99.90;;;;;;4993902;28;20048;-44
2023/10/10 13:07:59;;;;;;;20.33;6.38;;;22.10;99.90;;;;;;4993677;28;20502;-48
2023/10/10 13:10:30;;;;;;;23.85;6.05;;;22.10;99.90;;;;;;4990546;28;20061;-47
2023/10/10 13:12:56;;;;;;;15.52;6.28;;;22.10;99.90;;;;;;4974060;28;20034;-48
2023/10/10 13:15:29;;;;;;;15.63;6.57;;;22.10;99.90;;;;;;4973512;28;20023;-45
2023/10/10 13:20:43;;;;;;;21.90;7.57;;;22.10;99.90;;;;;;4974280;28;20053;-45
2023/10/10 13:23:09;;;;;;;11.07;6.35;;;22.10;99.90;;;;;;4974017;28;20023;-45
2023/10/10 13:25:37;;;;;;;13.07;5.72;;;22.10;99.90;;;;;;4973471;28;20544;-43
2023/10/10 13:28:09;;;;;;;9.45;5.65;;;22.00;99.90;;;;;;4972447;28;20034;-46
2023/10/10 13:30:38;;;;;;;10.80;6.00;;;22.00;99.90;;;;;;4973488;28;20426;-44
2023/10/10 13:33:06;;;;;;;12.65;6.35;;;22.10;99.90;;;;;;4973359;28;20031;-48
2023/10/10 13:35:32;;;;;;;14.80;6.38;;;22.10;99.90;;;;;;4979805;28;20242;-48
2023/10/10 13:37:57;;;;;;;14.82;6.55;;;22.10;99.90;;;;;;4992295;28;20027;-47
2023/10/10 13:40:23;;;;;;;15.00;6.18;;;22.00;99.90;;;;;;4992891;28;20023;-44
2023/10/10 13:42:49;;;;;;;13.90;5.55;;;22.00;99.90;;;;;;4992739;28;20106;-45
2023/10/10 13:45:19;;;;;;;13.05;5.60;;;22.00;99.90;;;;;;4991931;28;20053;-47
2023/10/10 13:47:48;;;;;;;13.88;5.80;;;22.00;99.90;;;;;;4992533;28;20394;-44
2023/10/10 13:50:40;;;;;;;16.08;5.60;;;22.00;99.90;;;;;;4992276;28;20390;-46
2023/10/10 13:53:07;;;;;;;22.45;6.63;;;22.00;99.90;;;;;;4992530;28;20038;-49
2023/10/10 13:55:34;;;;;;;36.63;23.40;;;22.00;99.90;;;;;;4992431;28;20490;-47
2023/10/10 13:57:59;;;;;;;22.13;7.40;;;22.00;99.90;;;;;;4991390;28;20031;-47
2023/10/10 14:00:33;;;;;;;15.55;5.72;;;22.00;99.90;;;;;;4992548;28;20018;-45
2023/10/10 14:03:05;;;;;;;11.82;5.43;;;22.00;99.90;;;;;;4992209;28;20097;-47
2023/10/10 14:05:36;;;;;;;15.52;6.68;;;22.00;99.90;;;;;;4991938;28;20457;-48
2023/10/10 14:08:03;;;;;;;14.13;5.80;;;22.00;99.90;;;;;;4992215;28;20034;-46
2023/10/10 14:10:40;;;;;;;10.43;5.38;;;22.00;99.90;;;;;;4992219;28;20333;-49
2023/10/10 14:13:18;;;;;;;21.75;5.20;;;22.00;99.90;;;;;;4993060;28;20022;-48
2023/10/10 14:15:57;;;;;;;19.77;5.97;;;22.00;99.90;;;;;;4991904;28;20030;-48
2023/10/10 14:18:30;;;;;;;17.83;6.18;;;22.00;99.90;;;;;;4992249;28;20031;-48
2023/10/10 14:21:01;;;;;;;20.88;6.47;;;22.10;99.90;;;;;;4992677;28;20605;-48
2023/10/10 14:23:27;;;;;;;15.75;5.88;;;22.10;99.90;;;;;;4992076;28;20022;-46
2023/10/10 14:26:12;;;;;;;10.27;5.78;;;22.10;99.90;;;;;;4992019;28;20032;-48
2023/10/10 14:28:38;;;;;;;10.60;5.43;;;22.10;99.90;;;;;;4992024;28;20027;-47
2023/10/10 14:31:04;;;;;;;16.35;6.53;;;22.10;99.90;;;;;;4992317;28;20456;-46
2023/10/10 14:33:29;;;;;;;11.43;6.00;;;22.20;99.90;;;;;;4991910;28;20117;-48
2023/10/10 14:35:55;;;;;;;13.07;5.28;;;22.20;99.90;;;;;;4991988;28;20026;-48
2023/10/10 14:38:20;;;;;;;18.58;7.00;;;22.20;99.90;;;;;;4992128;28;20034;-46
2023/10/10 14:40:46;;;;;;;11.68;5.63;;;22.20;99.90;;;;;;4991904;28;20103;-46
2023/10/10 14:43:12;;;;;;;20.25;6.03;;;22.20;99.90;;;;;;4992175;28;20026;-44
2023/10/10 14:45:43;;;;;;;15.13;5.97;;;22.30;99.90;;;;;;4991820;28;20308;-45
2023/10/10 14:48:18;;;;;;;19.08;6.15;;;22.30;99.90;;;;;;4991997;28;20026;-46
2023/10/10 14:50:45;;;;;;;;;;;22.30;99.90;;;;;;4992451;28;20045;-44
2023/10/10 14:53:10;;;;;;;11.88;5.60;;;22.30;99.90;;;;;;4991976;28;20360;-46
2023/10/10 14:55:40;;;;;;;10.95;5.13;;;22.30;99.90;;;;;;4992103;28;20038;-45
2023/10/10 14:58:09;;;;;;;15.40;5.47;;;22.30;99.90;;;;;;4991921;28;20479;-46
2023/10/10 15:00:39;;;;;;;9.55;4.85;;;22.40;99.90;;;;;;4990901;28;20552;-47
2023/10/10 15:03:12;;;;;;;10.48;5.45;;;22.40;99.90;;;;;;4991761;28;20398;-48
2023/10/10 15:05:47;;;;;;;16.00;5.55;;;22.60;99.90;;;;;;4991661;28;20375;-44
2023/10/10 15:08:14;;;;;;;10.93;6.10;;;22.60;99.90;;;;;;4991806;28;20052;-45
2023/10/10 15:10:40;;;;;;;15.07;5.38;;;22.60;99.90;;;;;;4991676;28;20030;-47
2023/10/10 15:13:08;;;;;;;15.43;6.38;;;22.50;99.90;;;;;;4991557;28;20029;-46
2023/10/10 15:15:34;;;;;;;11.73;5.47;;;22.50;99.90;;;;;;4991657;28;20027;-46
2023/10/10 15:18:00;;;;;;;14.27;6.22;;;22.50;99.90;;;;;;4991700;28;20030;-47
2023/10/10 15:20:27;;;;;;;28.00;11.80;;;22.40;99.90;;;;;;4991573;28;20505;-44
2023/10/10 15:22:53;;;;;;;20.75;11.77;;;22.40;99.90;;;;;;4991411;28;20033;-44
2023/10/10 15:25:21;;;;;;;12.98;6.13;;;22.40;99.90;;;;;;4991240;28;20030;-44
2023/10/10 15:27:47;;;;;;;16.08;5.55;;;22.40;99.90;;;;;;4992546;28;20030;-44
2023/10/10 15:30:15;;;;;;;14.90;5.57;;;22.30;99.90;;;;;;4995329;28;20125;-44
2023/10/10 15:32:46;;;;;;;13.32;5.63;;;22.40;99.90;;;;;;4995151;28;20481;-44
2023/10/10 15:35:16;;;;;;;13.15;5.00;;;22.40;99.90;;;;;;4994722;28;20490;-50
2023/10/10 15:37:42;;;;;;;18.80;5.70;;;22.40;99.90;;;;;;4995606;28;20038;-44
2023/10/10 15:40:21;;;;;;;12.18;5.65;;;22.40;99.90;;;;;;4995469;28;20493;-44
2023/10/10 15:42:51;;;;;;;10.00;5.25;;;22.40;99.90;;;;;;4996351;28;20267;-45
2023/10/10 15:45:20;;;;;;;11.48;5.43;;;22.30;99.90;;;;;;4995566;28;20533;-45
2023/10/10 15:47:52;;;;;;;19.98;5.35;;;22.30;99.90;;;;;;4995763;28;20030;-44
2023/10/10 15:50:18;;;;;;;11.73;4.90;;;22.30;99.90;;;;;;4995014;28;20097;-45
2023/10/10 15:52:48;;;;;;;13.25;5.70;;;22.40;99.90;;;;;;4994928;28;20133;-44
2023/10/10 15:55:23;;;;;;;15.15;5.40;;;22.30;99.90;;;;;;4994477;28;20045;-44
2023/10/10 15:57:53;;;;;;;14.07;5.13;;;22.30;99.90;;;;;;4993340;28;20054;-44
2023/10/10 16:00:32;;;;;;;12.98;5.30;;;22.20;99.90;;;;;;4994772;28;20030;-47
2023/10/10 16:02:58;;;;;;;11.43;5.70;;;22.20;99.90;;;;;;4995342;28;20034;-47
2023/10/10 16:05:25;;;;;;;11.27;5.30;;;22.20;99.90;;;;;;4994890;28;20085;-46